createdAt,value
2019-05-19T00:01:32.835Z,71.60
2019-05-19T00:04:01.672Z,66.90
2019-05-19T00:17:18.228Z,65.67
2019-05-19T00:19:47.090Z,65.57
2019-05-19T00:22:15.982Z,62.87
2019-05-19T00:24:45.086Z,64.70
2019-05-19T00:27:14.239Z,62.70
2019-05-19T00:29:43.189Z,61.67
2019-05-19T00:32:12.045Z,60.17
2019-05-19T00:34:40.988Z,61.60
2019-05-19T00:37:11.260Z,60.10
2019-05-19T00:39:40.074Z,54.47
2019-05-19T00:42:08.967Z,54.43
2019-05-19T00:44:38.047Z,56.10
2019-05-19T00:47:06.975Z,53.67
2019-05-19T00:49:41.427Z,54.03
2019-05-19T00:52:08.217Z,51.23
2019-05-19T00:54:37.209Z,51.53
2019-05-19T00:57:06.685Z,49.40
2019-05-19T00:59:36.523Z,45.10
2019-05-19T01:02:06.372Z,46.90
2019-05-19T01:04:36.439Z,45.30
2019-05-19T01:07:05.435Z,41.53
2019-05-19T01:09:34.265Z,41.67
2019-05-19T01:12:03.180Z,43.47
2019-05-19T01:14:31.989Z,43.53
2019-05-19T01:17:00.857Z,47.80
2019-05-19T01:19:29.792Z,46.00
2019-05-19T01:22:00.690Z,41.70
2019-05-19T01:24:29.887Z,48.70
2019-05-19T01:26:58.787Z,40.90
2019-05-19T01:29:27.706Z,42.73
2019-05-19T01:31:56.684Z,38.07
2019-05-19T01:34:25.597Z,40.07
2019-05-19T01:36:54.484Z,41.73
2019-05-19T01:39:23.685Z,49.33
2019-05-19T01:41:52.735Z,38.37
2019-05-19T01:44:21.576Z,43.77
2019-05-19T01:46:50.402Z,39.87
2019-05-19T01:49:19.304Z,32.53
2019-05-19T01:51:48.206Z,40.30
2019-05-19T01:54:17.239Z,37.57
2019-05-19T01:56:51.686Z,36.90
2019-05-19T01:59:20.598Z,37.53
2019-05-19T02:01:49.529Z,34.93
2019-05-19T02:04:18.501Z,37.90
2019-05-19T02:06:47.602Z,36.67
2019-05-19T02:09:16.591Z,32.23
2019-05-19T02:11:45.452Z,40.50
2019-05-19T02:14:14.363Z,36.47
2019-05-19T02:16:43.334Z,37.47
2019-05-19T02:19:12.347Z,32.57
2019-05-19T02:21:41.210Z,44.33
2019-05-19T02:24:10.129Z,37.43
2019-05-19T02:26:39.034Z,41.13
2019-05-19T02:29:08.050Z,41.10
2019-05-19T02:31:36.991Z,40.33
2019-05-19T02:34:06.099Z,38.07
2019-05-19T02:36:34.978Z,35.27
2019-05-19T02:39:05.677Z,35.63
2019-05-19T02:41:35.692Z,40.00
2019-05-19T02:44:05.421Z,31.60
2019-05-19T02:46:35.666Z,40.50
2019-05-19T02:49:09.687Z,35.53
2019-05-19T02:51:42.443Z,33.03
2019-05-19T02:54:11.767Z,29.80
2019-05-19T02:56:41.360Z,32.50
2019-05-19T02:59:10.650Z,34.93
2019-05-19T03:01:58.509Z,36.37
2019-05-19T03:04:27.381Z,31.43
2019-05-19T03:06:56.281Z,31.80
2019-05-19T03:09:25.204Z,37.13
2019-05-19T03:11:54.178Z,30.83
2019-05-19T03:14:23.170Z,30.60
2019-05-19T03:16:52.306Z,30.93
2019-05-19T03:19:21.197Z,39.03
2019-05-19T03:21:50.171Z,27.27
2019-05-19T03:24:19.186Z,30.97
2019-05-19T03:26:48.013Z,29.80
2019-05-19T03:29:20.272Z,29.83
2019-05-19T03:32:12.465Z,30.20
2019-05-19T03:34:38.905Z,29.20
2019-05-19T03:37:07.995Z,25.27
2019-05-19T03:39:36.922Z,26.27
2019-05-19T03:42:09.687Z,27.53
2019-05-19T03:44:36.357Z,34.97
2019-05-19T03:47:05.195Z,28.87
2019-05-19T03:49:34.178Z,27.03
2019-05-19T03:52:03.025Z,27.57
2019-05-19T03:54:31.999Z,25.43
2019-05-19T03:57:01.172Z,31.40
2019-05-19T03:59:30.005Z,29.97
2019-05-19T04:01:59.008Z,26.53
2019-05-19T04:04:27.850Z,26.40
2019-05-19T04:06:56.953Z,25.17
2019-05-19T04:09:25.780Z,30.63
2019-05-19T04:11:54.629Z,34.93
2019-05-19T04:14:23.574Z,23.87
2019-05-19T04:16:52.514Z,36.80
2019-05-19T04:19:23.622Z,25.30
2019-05-19T04:21:52.568Z,23.97
2019-05-19T04:24:21.396Z,23.40
2019-05-19T04:26:50.282Z,25.67
2019-05-19T04:29:21.666Z,30.93
2019-05-19T04:31:52.266Z,23.17
2019-05-19T04:34:21.094Z,28.17
2019-05-19T04:36:50.041Z,27.53
2019-05-19T04:39:18.967Z,25.47
2019-05-19T04:41:50.726Z,26.83
2019-05-19T04:44:19.596Z,26.90
2019-05-19T04:46:48.434Z,27.00
2019-05-19T04:49:17.387Z,23.57
2019-05-19T04:51:46.344Z,33.90
2019-05-19T04:54:15.201Z,31.80
2019-05-19T04:56:44.133Z,30.60
2019-05-19T04:59:12.997Z,24.17
2019-05-19T05:01:41.876Z,28.93
2019-05-19T05:04:10.823Z,24.43
2019-05-19T05:06:39.716Z,25.23
2019-05-19T05:09:08.708Z,28.07
2019-05-19T05:11:37.833Z,26.97
2019-05-19T05:14:06.725Z,25.97
2019-05-19T05:16:35.775Z,28.63
2019-05-19T05:19:04.798Z,21.67
2019-05-19T05:21:33.627Z,25.20
2019-05-19T05:24:02.785Z,22.23
2019-05-19T05:26:31.896Z,26.83
2019-05-19T05:29:01.034Z,23.03
2019-05-19T05:31:29.955Z,24.60
2019-05-19T05:33:59.159Z,22.73
2019-05-19T05:36:28.019Z,21.90
2019-05-19T05:38:56.875Z,23.23
2019-05-19T05:41:25.922Z,21.13
2019-05-19T05:43:55.109Z,20.90
2019-05-19T05:46:23.992Z,22.17
2019-05-19T05:48:52.853Z,20.67
2019-05-19T05:51:21.773Z,21.93
2019-05-19T05:53:50.577Z,24.07
2019-05-19T05:56:19.484Z,22.43
2019-05-19T05:58:48.270Z,22.23
2019-05-19T06:01:17.222Z,19.37
2019-05-19T06:03:46.219Z,23.67
2019-05-19T06:06:15.459Z,21.17
2019-05-19T06:15:54.537Z,17.93
2019-05-19T06:18:23.342Z,17.23
2019-05-19T06:20:52.592Z,20.47
2019-05-19T06:23:21.550Z,17.63
2019-05-19T06:25:50.357Z,19.93
2019-05-19T06:28:19.171Z,18.20
2019-05-19T06:30:48.091Z,17.70
2019-05-19T06:33:17.249Z,14.97
2019-05-19T06:35:46.941Z,19.93
2019-05-19T06:38:15.769Z,18.10
2019-05-19T06:40:45.165Z,16.03
2019-05-19T06:43:14.169Z,18.00
2019-05-19T06:45:42.972Z,16.73
2019-05-19T06:48:11.892Z,16.43
2019-05-19T06:50:41.121Z,15.27
2019-05-19T06:53:13.999Z,17.73
2019-05-19T06:55:40.415Z,16.73
2019-05-19T06:58:11.811Z,17.10
2019-05-19T07:00:40.677Z,16.17
2019-05-19T07:03:09.869Z,16.33
2019-05-19T07:05:39.026Z,16.07
2019-05-19T07:08:08.194Z,15.03
2019-05-19T07:10:37.171Z,15.43
2019-05-19T07:13:06.272Z,15.73
2019-05-19T07:15:35.087Z,15.47
2019-05-19T07:18:03.963Z,15.13
2019-05-19T07:20:32.850Z,15.00
2019-05-19T07:23:02.833Z,16.10
2019-05-19T07:25:31.628Z,13.47
2019-05-19T07:28:00.907Z,14.53
2019-05-19T07:30:29.981Z,15.17
2019-05-19T07:32:58.824Z,13.33
2019-05-19T07:35:27.676Z,13.83
2019-05-19T07:37:56.530Z,17.00
2019-05-19T07:40:25.421Z,14.73
2019-05-19T07:42:54.202Z,12.90
2019-05-19T07:45:23.454Z,13.97
2019-05-19T07:47:52.266Z,12.93
2019-05-19T07:50:21.229Z,13.87
2019-05-19T07:52:50.318Z,13.10
2019-05-19T07:55:19.863Z,13.80
2019-05-19T07:57:48.669Z,15.13
2019-05-19T08:00:17.644Z,15.33
2019-05-19T08:02:46.511Z,15.43
2019-05-19T08:05:15.469Z,14.50
2019-05-19T08:07:44.433Z,13.53
2019-05-19T08:10:13.380Z,14.97
2019-05-19T08:12:43.286Z,14.93
2019-05-19T08:15:12.356Z,14.90
2019-05-19T08:17:41.130Z,14.87
2019-05-19T08:20:10.438Z,14.77
2019-05-19T08:22:39.409Z,16.43
2019-05-19T08:25:08.313Z,14.90
2019-05-19T08:27:37.190Z,16.10
2019-05-19T08:30:06.620Z,15.33
2019-05-19T08:32:35.788Z,16.90
2019-05-19T08:35:05.186Z,14.10
2019-05-19T08:37:33.991Z,16.77
2019-05-19T08:40:02.893Z,16.17
2019-05-19T08:42:31.879Z,12.90
2019-05-19T08:45:00.832Z,14.30
2019-05-19T08:47:29.675Z,16.03
2019-05-19T08:49:58.853Z,15.20
2019-05-19T08:52:27.804Z,19.07
2019-05-19T08:54:56.598Z,13.93
2019-05-19T08:57:25.601Z,14.10
2019-05-19T08:59:54.356Z,12.87
2019-05-19T09:02:23.461Z,13.47
2019-05-19T09:04:52.267Z,12.80
2019-05-19T09:07:21.591Z,13.30
2019-05-19T09:09:50.724Z,13.47
2019-05-19T09:12:19.522Z,12.10
2019-05-19T09:14:48.336Z,12.43
2019-05-19T09:17:17.158Z,11.85
2019-05-19T09:19:46.373Z,14.73
2019-05-19T09:22:15.312Z,14.90
2019-05-19T09:24:44.489Z,14.47
2019-05-19T09:27:13.595Z,14.07
2019-05-19T09:29:42.585Z,13.88
2019-05-19T09:32:11.459Z,14.70
2019-05-19T09:34:41.631Z,14.70
2019-05-19T09:37:10.576Z,13.60
2019-05-19T09:39:39.806Z,14.40
2019-05-19T09:42:09.017Z,14.03
2019-05-19T09:44:39.342Z,12.35
2019-05-19T09:47:08.353Z,15.00
2019-05-19T09:49:37.220Z,17.17
2019-05-19T09:52:07.196Z,13.35
2019-05-19T09:54:44.836Z,12.68
2019-05-19T09:57:07.664Z,12.70
2019-05-19T09:59:36.671Z,12.53
2019-05-19T10:02:06.025Z,13.78
2019-05-19T10:04:35.462Z,12.47
2019-05-19T10:07:05.643Z,12.65
2019-05-19T10:10:09.936Z,11.25
2019-05-19T10:12:38.819Z,11.83
2019-05-19T10:15:09.654Z,12.40
2019-05-19T10:17:38.587Z,12.78
2019-05-19T10:20:08.770Z,10.82
2019-05-19T10:22:37.959Z,11.38
2019-05-19T10:25:20.978Z,10.60
2019-05-19T10:27:39.118Z,11.63
2019-05-19T10:30:08.728Z,12.00
2019-05-19T10:32:37.662Z,11.55
2019-05-19T10:35:07.135Z,11.35
2019-05-19T10:37:36.101Z,12.07
2019-05-19T10:40:05.787Z,10.28
2019-05-19T10:42:34.812Z,10.63
2019-05-19T10:45:04.109Z,10.60
2019-05-19T10:47:32.957Z,11.18
2019-05-19T10:50:01.895Z,10.95
2019-05-19T10:52:30.978Z,10.05
2019-05-19T10:54:59.831Z,11.15
2019-05-19T10:57:29.005Z,10.95
2019-05-19T10:59:58.038Z,10.95
2019-05-19T11:02:27.330Z,12.23
2019-05-19T11:04:56.871Z,11.73
2019-05-19T11:07:25.685Z,11.65
2019-05-19T11:09:54.611Z,13.55
2019-05-19T11:12:23.585Z,11.38
2019-05-19T11:14:52.501Z,11.93
2019-05-19T11:17:21.355Z,10.80
2019-05-19T11:19:50.311Z,9.98
2019-05-19T11:22:20.040Z,10.43
2019-05-19T11:24:48.961Z,7.67
2019-05-19T11:27:17.910Z,9.13
2019-05-19T11:29:48.062Z,9.08
2019-05-19T11:32:16.948Z,8.33
2019-05-19T11:34:45.944Z,9.35
2019-05-19T11:37:15.040Z,9.00
2019-05-19T11:39:43.915Z,9.13
2019-05-19T11:42:12.877Z,8.63
2019-05-19T11:44:41.892Z,9.05
2019-05-19T11:47:10.792Z,11.48
2019-05-19T11:49:39.709Z,9.90
2019-05-19T11:52:08.647Z,8.80
2019-05-19T11:54:37.758Z,12.82
2019-05-19T11:57:07.311Z,9.83
2019-05-19T11:59:36.147Z,11.43
2019-05-19T12:02:05.182Z,9.78
2019-05-19T12:04:34.299Z,11.68
2019-05-19T12:07:03.323Z,10.98
2019-05-19T12:09:32.292Z,11.00
2019-05-19T12:12:01.237Z,9.80
2019-05-19T12:14:30.424Z,10.20
2019-05-19T12:16:59.404Z,10.68
2019-05-19T12:19:28.261Z,10.78
2019-05-19T12:21:57.491Z,11.18
2019-05-19T12:24:26.310Z,11.70
2019-05-19T12:26:55.106Z,9.85
2019-05-19T12:29:24.283Z,9.90
2019-05-19T12:31:53.218Z,10.18
2019-05-19T12:34:22.129Z,10.65
2019-05-19T12:36:52.011Z,9.53
2019-05-19T12:39:20.895Z,10.72
2019-05-19T12:41:49.920Z,11.40
2019-05-19T12:44:19.040Z,10.55
2019-05-19T12:46:48.658Z,11.63
2019-05-19T12:49:17.808Z,12.82
2019-05-19T12:51:47.796Z,11.12
2019-05-19T12:54:16.866Z,11.03
2019-05-19T12:56:45.892Z,14.45
2019-05-19T12:59:14.828Z,12.10
2019-05-19T13:01:44.327Z,9.85
2019-05-19T13:04:13.301Z,10.78
2019-05-19T13:06:45.485Z,9.25
2019-05-19T13:09:14.574Z,10.58
2019-05-19T13:11:43.771Z,11.78
2019-05-19T13:14:12.683Z,11.78
2019-05-19T13:16:42.109Z,11.93
2019-05-19T13:19:10.922Z,11.35
2019-05-19T13:21:40.027Z,11.15
2019-05-19T13:24:09.339Z,10.93
2019-05-19T13:26:38.366Z,10.70
2019-05-19T13:29:07.470Z,11.20
2019-05-19T13:31:36.449Z,11.55
2019-05-19T13:34:05.627Z,10.08
2019-05-19T13:36:34.599Z,11.35
2019-05-19T13:39:04.341Z,11.12
2019-05-19T13:41:33.283Z,10.98
2019-05-19T13:44:02.389Z,10.78
2019-05-19T13:46:31.388Z,10.00
2019-05-19T13:49:00.415Z,10.88
2019-05-19T13:51:29.331Z,9.78
2019-05-19T13:53:58.511Z,9.73
2019-05-19T13:56:28.440Z,10.60
2019-05-19T13:58:57.432Z,12.07
2019-05-19T14:01:28.931Z,12.65
2019-05-19T14:03:57.061Z,10.05
2019-05-19T14:06:26.185Z,11.03
2019-05-19T14:08:55.104Z,11.65
2019-05-19T14:14:10.601Z,9.63
2019-05-19T14:16:39.542Z,10.43
2019-05-19T14:19:08.396Z,10.55
2019-05-19T14:21:37.746Z,10.40
2019-05-19T14:24:07.086Z,10.45
2019-05-19T14:26:36.238Z,10.93
2019-05-19T14:29:07.781Z,11.00
2019-05-19T14:31:37.008Z,9.68
2019-05-19T14:34:05.929Z,11.03
2019-05-19T14:36:34.764Z,10.18
2019-05-19T14:39:06.359Z,7.95
2019-05-19T14:41:39.697Z,9.00
2019-05-19T14:44:08.630Z,10.03
2019-05-19T14:46:37.544Z,11.95
2019-05-19T14:49:07.486Z,10.82
2019-05-19T14:51:37.503Z,10.43
2019-05-19T14:54:06.541Z,10.03
2019-05-19T14:56:36.466Z,11.60
2019-05-19T14:59:05.736Z,11.05
2019-05-19T15:01:34.643Z,10.95
2019-05-19T15:04:03.639Z,11.57
2019-05-19T15:06:32.608Z,11.38
2019-05-19T15:09:01.559Z,11.95
2019-05-19T15:11:31.523Z,10.98
2019-05-19T15:14:00.391Z,10.55
2019-05-19T15:16:30.777Z,9.60
2019-05-19T15:18:59.643Z,8.85
2019-05-19T15:21:31.870Z,10.32
2019-05-19T15:23:59.885Z,10.72
2019-05-19T15:26:30.346Z,9.45
2019-05-19T15:28:59.297Z,10.25
2019-05-19T15:31:28.439Z,8.78
2019-05-19T15:33:57.308Z,9.33
2019-05-19T15:36:28.320Z,8.70
2019-05-19T15:38:57.180Z,10.08
2019-05-19T15:41:26.278Z,10.30
2019-05-19T15:44:01.823Z,9.98
2019-05-19T15:46:30.605Z,9.33
2019-05-19T15:49:02.932Z,10.43
2019-05-19T15:51:37.425Z,11.15
2019-05-19T15:54:05.771Z,12.18
2019-05-19T15:56:35.678Z,10.72
2019-05-19T15:59:04.576Z,13.30
2019-05-19T16:01:33.544Z,15.00
2019-05-19T16:04:02.805Z,11.22
2019-05-19T16:06:32.096Z,9.73
2019-05-19T16:09:01.033Z,9.95
2019-05-19T16:11:30.038Z,9.18
2019-05-19T16:13:59.192Z,8.65
2019-05-19T16:16:28.803Z,8.58
2019-05-19T16:18:57.763Z,9.88
2019-05-19T16:21:26.881Z,8.38
2019-05-19T16:23:55.693Z,9.00
2019-05-19T16:26:25.040Z,7.55
2019-05-19T16:28:54.010Z,8.03
2019-05-19T16:31:23.173Z,8.28
2019-05-19T16:33:53.316Z,8.13
2019-05-19T16:36:22.136Z,8.13
2019-05-19T16:38:51.133Z,8.00
2019-05-19T16:41:20.049Z,7.55
2019-05-19T16:43:48.847Z,10.90
2019-05-19T16:46:23.735Z,10.55
2019-05-19T16:48:54.840Z,7.80
2019-05-19T16:51:23.892Z,8.53
2019-05-19T16:53:55.210Z,9.35
2019-05-19T16:56:24.333Z,9.13
2019-05-19T16:58:53.272Z,9.43
2019-05-19T17:01:22.089Z,9.20
2019-05-19T17:03:51.097Z,8.28
2019-05-19T17:06:20.065Z,10.40
2019-05-19T17:08:48.953Z,9.08
2019-05-19T17:11:18.787Z,10.13
2019-05-19T17:13:47.702Z,11.03
2019-05-19T17:16:16.709Z,9.30
2019-05-19T17:18:45.736Z,8.88
2019-05-19T17:21:14.558Z,9.10
2019-05-19T17:23:44.562Z,10.85
2019-05-19T17:26:13.342Z,11.68
2019-05-19T17:28:42.810Z,12.60
2019-05-19T17:31:11.623Z,11.00
2019-05-19T17:33:40.704Z,11.90
2019-05-19T17:36:09.846Z,11.00
2019-05-19T17:38:38.752Z,11.30
2019-05-19T17:41:07.654Z,12.88
2019-05-19T17:43:36.701Z,13.30
2019-05-19T17:46:15.243Z,10.70
2019-05-19T17:48:47.495Z,14.03
2019-05-19T17:51:16.304Z,11.93
2019-05-19T17:53:45.781Z,12.18
2019-05-19T17:56:15.628Z,10.72
2019-05-19T17:58:45.875Z,11.80
2019-05-19T18:01:14.759Z,12.28
2019-05-19T18:03:44.281Z,15.48
2019-05-19T18:06:13.092Z,12.63
2019-05-19T18:08:41.983Z,13.55
2019-05-19T18:13:48.829Z,11.80
2019-05-19T18:16:18.226Z,14.18
2019-05-19T18:18:47.576Z,14.33
2019-05-19T18:21:16.679Z,10.97
2019-05-19T18:23:46.244Z,15.03
2019-05-19T18:26:15.139Z,13.30
2019-05-19T18:28:43.948Z,13.23
2019-05-19T18:31:12.842Z,14.43
2019-05-19T18:33:49.215Z,13.40
2019-05-19T18:36:14.097Z,13.67
2019-05-19T18:38:44.449Z,13.63
2019-05-19T18:41:13.571Z,13.23
2019-05-19T18:43:42.524Z,14.20
2019-05-19T18:46:15.454Z,13.67
2019-05-19T18:48:44.739Z,15.13
2019-05-19T18:57:31.053Z,14.77
2019-05-19T19:00:00.921Z,15.13
2019-05-19T19:02:29.940Z,15.20
2019-05-19T19:04:59.023Z,14.20
2019-05-19T19:07:45.752Z,19.87
2019-05-19T19:10:15.042Z,16.57
2019-05-19T19:12:43.870Z,16.13
2019-05-19T19:15:12.994Z,18.07
2019-05-19T19:17:41.806Z,17.03
2019-05-19T19:20:10.900Z,17.53
2019-05-19T19:22:39.993Z,17.97
2019-05-19T19:25:09.024Z,19.00
2019-05-19T19:27:37.880Z,18.63
2019-05-19T19:30:07.138Z,17.47
2019-05-19T19:32:35.981Z,21.30
2019-05-19T19:35:05.199Z,20.83
2019-05-19T19:37:34.122Z,18.60
2019-05-19T19:40:03.410Z,21.40
2019-05-19T19:42:32.212Z,18.20
2019-05-19T19:45:01.025Z,20.40
2019-05-19T19:47:29.929Z,19.97
2019-05-19T19:49:58.799Z,19.73
2019-05-19T19:52:27.942Z,23.00
2019-05-19T19:54:56.811Z,22.67
2019-05-19T19:57:25.598Z,25.60
2019-05-19T19:59:55.623Z,23.07
2019-05-19T20:02:24.706Z,22.73
2019-05-19T20:04:53.588Z,25.80
2019-05-19T20:14:33.057Z,24.50
2019-05-19T20:17:02.307Z,25.40
2019-05-19T20:19:31.410Z,26.77
2019-05-19T20:22:00.467Z,26.07
2019-05-19T20:27:55.817Z,25.83
2019-05-19T20:30:35.138Z,27.20
2019-05-19T20:32:55.630Z,28.40
2019-05-19T20:35:24.726Z,26.77
2019-05-19T20:37:56.826Z,28.60
2019-05-19T20:40:27.724Z,29.20
2019-05-19T20:42:57.122Z,27.40
2019-05-19T20:45:25.865Z,28.80
2019-05-19T20:47:54.985Z,31.43
2019-05-19T20:50:23.960Z,32.17
2019-05-19T20:52:53.018Z,29.60
2019-05-19T20:55:22.519Z,29.00
2019-05-19T20:57:55.670Z,28.47
2019-05-19T21:00:24.598Z,27.20
2019-05-19T21:02:53.664Z,25.13
2019-05-19T21:05:41.933Z,27.60
2019-05-19T21:08:14.305Z,28.73
2019-05-19T21:14:12.243Z,28.73
2019-05-19T21:16:50.885Z,31.07
2019-05-19T21:19:22.046Z,30.67
2019-05-19T21:21:50.844Z,28.70
2019-05-19T21:24:19.801Z,31.87
2019-05-19T21:26:48.702Z,30.50
2019-05-19T21:29:18.252Z,30.83
2019-05-19T21:31:47.298Z,30.10
2019-05-19T21:34:16.444Z,29.13
2019-05-19T21:36:45.454Z,29.50
2019-05-19T21:46:06.452Z,33.23
2019-05-19T21:56:30.231Z,35.23
2019-05-19T21:58:59.100Z,32.87
2019-05-19T22:02:17.526Z,36.63
2019-05-19T22:04:46.803Z,38.20
2019-05-19T22:07:46.552Z,32.27
2019-05-19T22:10:15.787Z,38.00
2019-05-19T22:12:44.671Z,37.50
2019-05-19T22:15:13.824Z,40.33
2019-05-19T22:17:42.945Z,37.63
2019-05-19T22:20:16.919Z,40.53
2019-05-19T22:22:45.772Z,43.20
2019-05-19T22:25:14.880Z,45.07
2019-05-19T22:27:43.716Z,42.57
2019-05-19T22:30:15.323Z,44.83
2019-05-19T22:32:44.389Z,46.73
2019-05-19T22:35:14.132Z,44.00
2019-05-19T22:37:43.094Z,43.13
2019-05-19T22:40:12.493Z,44.93
2019-05-19T22:42:41.434Z,41.57
2019-05-19T22:45:13.596Z,42.33
2019-05-19T22:47:42.690Z,45.07
2019-05-19T22:50:11.998Z,42.77
2019-05-19T22:52:40.846Z,41.73
2019-05-19T22:55:10.330Z,43.27
2019-05-19T22:57:39.190Z,45.97
2019-05-19T23:00:09.600Z,43.60
2019-05-19T23:06:16.690Z,43.87
2019-05-19T23:15:43.051Z,46.40
2019-05-19T23:18:21.930Z,46.00
2019-05-19T23:20:48.062Z,44.77
2019-05-19T23:23:16.952Z,45.10
2019-05-19T23:25:46.065Z,49.03
2019-05-19T23:28:15.029Z,43.47
2019-05-19T23:30:44.004Z,43.73
2019-05-19T23:33:12.871Z,43.67
2019-05-19T23:35:41.914Z,44.43
2019-05-19T23:38:10.809Z,43.63
2019-05-19T23:40:39.808Z,48.47
2019-05-19T23:43:08.862Z,43.30
2019-05-19T23:45:37.883Z,45.80
2019-05-19T23:48:07.117Z,37.83
2019-05-19T23:50:36.049Z,42.43
2019-05-19T23:53:05.102Z,40.00
2019-05-19T23:55:33.977Z,50.03
2019-05-19T23:58:02.800Z,45.27
